Union Square, New Jersey
Current Conditions -  °F | °C
As of 9:51 AM on Thursday 23 Oct 2014 (Local Time) from KEWR Reporting Station
Light Rain Light Rain  
Wind Chill: 51°   Ceiling: 1400
Heat Index: 51°   Visibility: 7mi
Dew Point: 49°   Wind: 14mph
Humidity: 92%   Direction: 340°NNW
Pressure: 29.72"   Gusts: NA
Location:  40.6709°N, 74.179°W
Report Text: KEWR 231351Z 34012KT 7SM -RA BKN014 BKN023 OVC039 11/09 A2972 RMK AO2 SLP064 BKN014 V SCT P0005 T01060094 $
Loading
Personal Weather Stations






























Interactive Weather Map
Tropical Storm Tracking
New forecast layout! Learn more

10-Day Weather Forecast

Advertisements
Track Severe Weather on mobile